Terminal Aerodrome Forecast
Issued by NWS

Home | Current Version | Previous Version | Text Only | Print | Product List | Glossary On
Versions: 1 2 3 4 5 6 7 8 9 10 11 12
000
FTUS44 KOUN 262320
TAFPNC
TAF
KPNC 262320Z 2700/2724 06008KT P6SM SKC
     FM271000 10005KT P6SM BKN012
     FM271200 12007KT 5SM BR OVC007
      TEMPO 2713/2715 4SM BR OVC004
     FM271500 18012KT P6SM SCT030=

USA.gov is the U.S. government's official web portal to all federal, state and local government web resources and services.